createdAt,value
2023-02-22T00:00:43.085Z,124.60
2023-02-22T00:03:40.371Z,130.32
2023-02-22T00:06:23.445Z,131.88
2023-02-22T00:08:52.768Z,124.03
2023-02-22T00:11:20.796Z,123.05
2023-02-22T00:13:50.911Z,132.23
2023-02-22T00:16:21.398Z,125.13
2023-02-22T00:18:50.873Z,123.13
2023-02-22T00:21:22.228Z,123.65
2023-02-22T00:23:50.689Z,134.68
2023-02-22T00:26:23.572Z,122.68
2023-02-22T00:28:53.737Z,127.70
2023-02-22T00:31:22.738Z,123.70
2023-02-22T00:33:50.438Z,121.00
2023-02-22T00:36:24.273Z,125.60
2023-02-22T00:38:52.258Z,124.65
2023-02-22T00:41:21.228Z,130.48
2023-02-22T00:43:54.148Z,130.88
2023-02-22T00:46:21.754Z,135.63
2023-02-22T00:48:49.251Z,146.32
2023-02-22T00:51:24.704Z,131.80
2023-02-22T00:53:55.751Z,131.45
2023-02-22T00:56:23.309Z,129.13
2023-02-22T00:58:50.851Z,129.85
2023-02-22T01:01:21.908Z,127.50
2023-02-22T01:03:50.421Z,124.15
2023-02-22T01:06:18.861Z,126.63
2023-02-22T01:08:48.284Z,129.20
2023-02-22T01:11:19.613Z,130.60
2023-02-22T01:13:49.834Z,138.15
2023-02-22T01:16:18.492Z,144.95
2023-02-22T01:18:48.700Z,139.02
2023-02-22T01:21:16.626Z,125.00
2023-02-22T01:23:49.318Z,131.50
2023-02-22T01:26:19.611Z,134.35
2023-02-22T01:28:50.336Z,125.03
2023-02-22T01:31:19.796Z,128.50
2023-02-22T01:33:51.222Z,131.63
2023-02-22T01:36:22.548Z,125.25
2023-02-22T01:38:50.194Z,122.03
2023-02-22T01:41:20.344Z,130.75
2023-02-22T01:43:51.008Z,121.78
2023-02-22T01:46:27.581Z,139.68
2023-02-22T01:49:06.368Z,125.20
2023-02-22T01:51:38.677Z,131.98
2023-02-22T01:54:23.841Z,139.60
2023-02-22T01:57:00.411Z,132.10
2023-02-22T01:59:33.835Z,133.88
2023-02-22T02:02:05.258Z,135.43
2023-02-22T02:04:34.429Z,130.40
2023-02-22T02:07:06.311Z,130.00
2023-02-22T02:09:54.016Z,138.05
2023-02-22T02:12:23.426Z,126.40
2023-02-22T02:14:52.775Z,130.85
2023-02-22T02:17:23.933Z,134.38
2023-02-22T02:20:11.953Z,136.45
2023-02-22T02:22:54.988Z,145.23
2023-02-22T02:26:07.138Z,126.57
2023-02-22T02:29:22.062Z,135.23
2023-02-22T02:31:58.272Z,135.77
2023-02-22T02:35:04.117Z,131.25
2023-02-22T02:37:51.618Z,127.93
2023-02-22T02:40:24.903Z,132.40
2023-02-22T02:43:12.410Z,135.93
2023-02-22T02:45:54.491Z,140.32
2023-02-22T02:48:26.611Z,138.23
2023-02-22T02:50:57.090Z,129.60
2023-02-22T02:53:30.874Z,139.18
2023-02-22T02:56:02.783Z,133.95
2023-02-22T02:58:32.860Z,130.57
2023-02-22T03:01:08.260Z,135.27
2023-02-22T03:04:00.608Z,134.57
2023-02-22T03:06:53.323Z,134.75
2023-02-22T03:09:26.870Z,129.32
2023-02-22T03:12:19.553Z,139.25
2023-02-22T03:15:16.234Z,132.98
2023-02-22T03:18:00.006Z,128.70
2023-02-22T03:20:36.665Z,137.27
2023-02-22T03:23:10.726Z,133.23
2023-02-22T03:26:12.159Z,144.10
2023-02-22T03:28:46.748Z,132.48
2023-02-22T03:31:23.238Z,135.63
2023-02-22T03:34:22.218Z,139.35
2023-02-22T03:37:01.179Z,142.25
2023-02-22T03:39:31.348Z,134.75
2023-02-22T03:42:09.848Z,129.68
2023-02-22T03:44:43.829Z,141.05
2023-02-22T03:47:21.097Z,144.60
2023-02-22T03:50:00.609Z,139.25
2023-02-22T03:52:28.533Z,140.80
2023-02-22T03:54:59.840Z,141.55
2023-02-22T03:57:32.340Z,136.70
2023-02-22T04:00:08.142Z,145.13
2023-02-22T04:02:42.424Z,133.02
2023-02-22T04:05:15.755Z,136.85
2023-02-22T04:07:43.756Z,135.70
2023-02-22T04:10:14.544Z,141.45
2023-02-22T04:12:41.996Z,139.38
2023-02-22T04:15:13.515Z,134.32
2023-02-22T04:17:41.173Z,140.25
2023-02-22T04:20:13.784Z,146.20
2023-02-22T04:22:49.674Z,127.30
2023-02-22T04:25:22.155Z,138.00
2023-02-22T04:27:49.923Z,131.75
2023-02-22T04:30:21.979Z,138.93
2023-02-22T04:32:49.963Z,135.18
2023-02-22T04:35:20.975Z,135.30
2023-02-22T04:37:48.693Z,131.93
2023-02-22T04:40:26.721Z,128.48
2023-02-22T04:42:54.204Z,134.00
2023-02-22T04:45:21.896Z,128.20
2023-02-22T04:47:49.642Z,136.00
2023-02-22T04:50:21.462Z,131.75
2023-02-22T04:52:49.579Z,135.98
2023-02-22T04:55:18.593Z,130.15
2023-02-22T04:57:46.443Z,131.65
2023-02-22T05:00:18.399Z,131.27
2023-02-22T05:02:46.124Z,140.68
2023-02-22T05:05:22.363Z,138.25
2023-02-22T05:07:50.809Z,135.82
2023-02-22T05:10:19.225Z,138.57
2023-02-22T05:12:46.975Z,143.98
2023-02-22T05:15:20.370Z,130.95
2023-02-22T05:17:52.516Z,124.43
2023-02-22T05:20:29.803Z,142.43
2023-02-22T05:23:00.947Z,139.25
2023-02-22T05:25:35.184Z,131.13
2023-02-22T05:28:05.778Z,133.95
2023-02-22T05:30:35.471Z,135.93
2023-02-22T05:33:03.713Z,128.77
2023-02-22T05:35:32.984Z,141.27
2023-02-22T05:38:03.655Z,133.13
2023-02-22T05:40:34.205Z,148.45
2023-02-22T05:43:06.808Z,135.85
2023-02-22T05:45:37.199Z,142.82
2023-02-22T05:48:05.331Z,136.15
2023-02-22T05:50:50.023Z,140.90
2023-02-22T05:53:19.692Z,138.70
2023-02-22T05:55:49.651Z,150.48
2023-02-22T05:58:17.172Z,147.57
2023-02-22T06:00:45.162Z,140.85
2023-02-22T06:03:13.788Z,140.10
2023-02-22T06:05:42.679Z,138.15
2023-02-22T06:08:10.615Z,145.35
2023-02-22T06:10:41.418Z,133.90
2023-02-22T06:13:08.914Z,140.30
2023-02-22T06:15:36.618Z,138.20
2023-02-22T06:18:07.251Z,132.27
2023-02-22T06:20:40.555Z,141.40
2023-02-22T06:23:08.132Z,157.45
2023-02-22T06:25:36.535Z,157.65
2023-02-22T06:28:04.443Z,144.68
2023-02-22T06:30:35.399Z,142.48
2023-02-22T06:33:05.772Z,144.43
2023-02-22T06:35:33.696Z,151.35
2023-02-22T06:38:04.346Z,153.43
2023-02-22T06:40:39.413Z,137.52
2023-02-22T06:43:06.892Z,157.93
2023-02-22T06:45:36.148Z,151.18
2023-02-22T06:48:12.872Z,160.07
2023-02-22T06:50:40.476Z,162.82
2023-02-22T06:53:11.143Z,152.55
2023-02-22T06:55:41.242Z,155.43
2023-02-22T06:58:08.896Z,154.27
2023-02-22T07:00:40.231Z,157.18
2023-02-22T07:03:08.130Z,162.48
2023-02-22T07:05:38.718Z,160.00
2023-02-22T07:08:07.644Z,154.32
2023-02-22T07:10:36.657Z,165.57
2023-02-22T07:13:05.876Z,152.05
2023-02-22T07:15:36.080Z,182.00
2023-02-22T07:18:08.781Z,164.93
2023-02-22T07:20:38.790Z,162.68
2023-02-22T07:23:10.024Z,158.27
2023-02-22T07:25:38.157Z,151.43
2023-02-22T07:28:13.426Z,149.38
2023-02-22T07:30:41.070Z,156.82
2023-02-22T07:33:23.683Z,147.68
2023-02-22T07:35:51.781Z,142.73
2023-02-22T07:38:20.905Z,155.45
2023-02-22T07:40:48.809Z,156.30
2023-02-22T07:43:17.583Z,165.60
2023-02-22T07:45:45.808Z,157.32
2023-02-22T07:48:16.930Z,157.88
2023-02-22T07:50:45.563Z,154.30
2023-02-22T07:53:31.253Z,161.68
2023-02-22T07:56:35.982Z,166.75
2023-02-22T07:59:06.414Z,159.48
2023-02-22T08:01:35.289Z,160.85
2023-02-22T08:04:07.025Z,171.70
2023-02-22T08:06:34.806Z,152.38
2023-02-22T08:09:02.658Z,164.10
2023-02-22T08:11:30.289Z,165.80
2023-02-22T08:13:58.049Z,165.55
2023-02-22T08:16:25.712Z,154.90
2023-02-22T08:18:56.275Z,162.73
2023-02-22T08:21:26.981Z,161.93
2023-02-22T08:23:54.611Z,165.02
2023-02-22T08:26:37.624Z,167.02
2023-02-22T08:29:10.513Z,160.82
2023-02-22T08:31:38.138Z,155.57
2023-02-22T08:34:05.918Z,162.55
2023-02-22T08:36:36.927Z,168.60
2023-02-22T08:39:04.415Z,161.45
2023-02-22T08:41:31.877Z,161.32
2023-02-22T08:44:01.635Z,150.38
2023-02-22T08:46:29.564Z,164.40
2023-02-22T08:48:57.188Z,151.68
2023-02-22T08:51:27.674Z,166.02
2023-02-22T08:53:55.913Z,158.93
2023-02-22T08:56:23.424Z,157.68
2023-02-22T08:59:11.190Z,158.95
2023-02-22T09:01:39.159Z,148.30
2023-02-22T09:04:09.554Z,158.38
2023-02-22T09:06:40.192Z,147.38
2023-02-22T09:09:09.383Z,149.10
2023-02-22T09:11:36.889Z,141.70
2023-02-22T09:14:04.523Z,145.10
2023-02-22T09:16:38.178Z,159.68
2023-02-22T09:19:05.696Z,144.47
2023-02-22T09:21:36.112Z,148.55
2023-02-22T09:24:08.516Z,148.65
2023-02-22T09:26:39.849Z,148.15
2023-02-22T09:29:10.892Z,134.02
2023-02-22T09:31:40.311Z,139.73
2023-02-22T09:34:21.440Z,135.10
2023-02-22T09:36:52.192Z,137.32
2023-02-22T09:39:27.742Z,131.77
2023-02-22T09:42:11.690Z,136.35
2023-02-22T09:44:45.047Z,126.75
2023-02-22T09:47:49.642Z,116.13
2023-02-22T09:50:22.802Z,121.68
2023-02-22T09:53:05.788Z,117.85
2023-02-22T09:56:01.566Z,116.57
2023-02-22T09:58:42.989Z,113.13
2023-02-22T10:01:30.449Z,127.35
2023-02-22T10:04:26.458Z,117.75
2023-02-22T10:07:07.029Z,119.40
2023-02-22T10:09:42.854Z,111.85
2023-02-22T10:12:12.992Z,115.47
2023-02-22T10:15:00.590Z,124.43
2023-02-22T10:17:34.230Z,126.22
2023-02-22T10:20:38.564Z,126.63
2023-02-22T10:23:28.803Z,128.27
2023-02-22T10:26:14.995Z,126.28
2023-02-22T10:29:16.550Z,118.63
2023-02-22T10:31:47.053Z,116.18
2023-02-22T10:34:20.774Z,120.20
2023-02-22T10:36:51.311Z,117.68
2023-02-22T10:39:30.569Z,122.97
2023-02-22T10:42:06.253Z,113.72
2023-02-22T10:44:41.594Z,117.15
2023-02-22T10:47:12.530Z,122.30
2023-02-22T10:49:46.648Z,111.38
2023-02-22T10:52:37.705Z,108.13
2023-02-22T10:55:15.919Z,109.28
2023-02-22T10:58:08.864Z,116.65
2023-02-22T11:00:50.410Z,105.72
2023-02-22T11:03:24.129Z,110.43
2023-02-22T11:05:54.910Z,108.75
2023-02-22T11:08:22.733Z,111.75
2023-02-22T11:10:53.550Z,111.20
2023-02-22T11:13:28.797Z,103.20
2023-02-22T11:16:18.680Z,113.97
2023-02-22T11:18:48.402Z,112.35
2023-02-22T11:21:22.929Z,106.28
2023-02-22T11:24:13.133Z,105.65
2023-02-22T11:26:49.410Z,102.75
2023-02-22T11:29:26.963Z,108.65
2023-02-22T11:31:55.983Z,104.55
2023-02-22T11:34:28.336Z,103.78
2023-02-22T11:36:56.822Z,112.28
2023-02-22T11:39:35.828Z,106.97
2023-02-22T11:42:27.364Z,128.73
2023-02-22T11:45:15.520Z,101.55
2023-02-22T11:47:57.253Z,108.22
2023-02-22T11:50:46.798Z,103.43
2023-02-22T11:53:38.629Z,108.60
2023-02-22T11:56:38.376Z,106.78
2023-02-22T11:59:12.825Z,107.82
2023-02-22T12:01:51.853Z,112.75
2023-02-22T12:04:46.044Z,101.40
2023-02-22T12:07:32.128Z,109.90
2023-02-22T12:10:19.479Z,117.75
2023-02-22T12:13:27.100Z,104.90
2023-02-22T12:16:08.349Z,101.70
2023-02-22T12:18:49.306Z,114.70
2023-02-22T12:21:20.688Z,105.72
2023-02-22T12:24:08.652Z,112.38
2023-02-22T12:27:20.179Z,108.10
2023-02-22T12:29:58.641Z,107.32
2023-02-22T12:32:41.885Z,111.03
2023-02-22T12:35:13.129Z,117.97
2023-02-22T12:38:04.681Z,107.35
2023-02-22T12:41:04.119Z,113.47
2023-02-22T12:44:09.892Z,114.85
2023-02-22T12:46:52.670Z,113.00
2023-02-22T12:49:24.471Z,113.75
2023-02-22T12:52:07.026Z,101.40
2023-02-22T12:54:57.503Z,115.32
2023-02-22T12:57:51.200Z,113.65
2023-02-22T13:00:26.537Z,111.57
2023-02-22T13:03:20.247Z,108.70
2023-02-22T13:05:55.519Z,100.60
2023-02-22T13:09:06.031Z,114.85
2023-02-22T13:11:33.508Z,112.97
2023-02-22T13:14:20.878Z,119.65
2023-02-22T13:16:58.269Z,116.03
2023-02-22T13:19:45.984Z,104.88
2023-02-22T13:22:26.943Z,112.78
2023-02-22T13:25:16.616Z,119.65
2023-02-22T13:28:13.700Z,112.03
2023-02-22T13:30:48.309Z,113.70
2023-02-22T13:33:42.303Z,123.22
2023-02-22T13:36:27.479Z,109.63
2023-02-22T13:39:28.558Z,114.88
2023-02-22T13:42:22.572Z,122.40
2023-02-22T13:45:09.794Z,114.03
2023-02-22T13:47:55.788Z,116.57
2023-02-22T13:50:35.428Z,117.70
2023-02-22T13:53:10.177Z,112.60
2023-02-22T13:58:12.084Z,107.32
2023-02-22T14:00:46.316Z,113.75
2023-02-22T14:03:13.732Z,110.57
2023-02-22T14:05:46.948Z,108.95
2023-02-22T14:08:14.683Z,107.55
2023-02-22T14:10:52.377Z,112.97
2023-02-22T14:13:43.905Z,122.60
2023-02-22T14:16:17.192Z,110.55
2023-02-22T14:18:53.672Z,119.28
2023-02-22T14:21:22.878Z,115.20
2023-02-22T14:23:53.105Z,118.20
2023-02-22T14:26:44.588Z,109.57
2023-02-22T14:29:18.621Z,113.03
2023-02-22T14:31:50.867Z,120.35
2023-02-22T14:34:21.474Z,111.82
2023-02-22T14:37:01.714Z,112.25
2023-02-22T14:39:51.235Z,109.20
2023-02-22T14:42:36.478Z,104.85
2023-02-22T14:45:10.112Z,115.55
2023-02-22T14:48:04.034Z,113.63
2023-02-22T14:50:44.491Z,108.72
2023-02-22T14:53:21.024Z,108.53
2023-02-22T14:56:04.014Z,106.00
2023-02-22T14:58:46.688Z,105.38
2023-02-22T15:01:31.204Z,113.57
2023-02-22T15:04:26.968Z,118.50
2023-02-22T15:06:57.216Z,112.18
2023-02-22T15:09:30.107Z,99.75
2023-02-22T15:12:05.012Z,108.20
2023-02-22T15:14:37.961Z,116.40
2023-02-22T15:17:24.979Z,116.13
2023-02-22T15:19:53.426Z,103.00
2023-02-22T15:22:32.897Z,102.93
2023-02-22T15:25:09.324Z,103.03
2023-02-22T15:27:37.712Z,115.40
2023-02-22T15:30:09.511Z,103.95
2023-02-22T15:32:49.966Z,105.45
2023-02-22T15:35:30.191Z,108.93
2023-02-22T15:38:03.659Z,108.20
2023-02-22T15:40:33.418Z,113.07
2023-02-22T15:43:08.936Z,110.93
2023-02-22T15:45:43.123Z,107.13
2023-02-22T15:48:11.739Z,109.88
2023-02-22T15:50:39.327Z,108.68
2023-02-22T15:53:24.842Z,107.13
2023-02-22T15:55:58.675Z,107.35
2023-02-22T15:58:29.266Z,111.97
2023-02-22T16:01:01.958Z,107.80
2023-02-22T16:03:45.631Z,105.05
2023-02-22T16:06:24.740Z,104.85
2023-02-22T16:08:55.483Z,104.35
2023-02-22T16:11:30.284Z,107.63
2023-02-22T16:14:05.092Z,103.43
2023-02-22T16:16:41.660Z,111.22
2023-02-22T16:19:21.820Z,105.40
2023-02-22T16:21:56.551Z,107.43
2023-02-22T16:24:42.490Z,103.75
2023-02-22T16:27:13.284Z,123.32
2023-02-22T16:29:40.886Z,107.03
2023-02-22T16:32:09.197Z,110.93
2023-02-22T16:34:37.057Z,112.28
2023-02-22T16:37:04.601Z,115.80
2023-02-22T16:39:34.792Z,109.05
2023-02-22T16:42:05.534Z,109.70
2023-02-22T16:44:34.643Z,108.95
2023-02-22T16:47:02.152Z,103.50
2023-02-22T16:49:29.617Z,109.03
2023-02-22T16:52:01.650Z,110.40
2023-02-22T16:54:36.835Z,117.65
2023-02-22T16:57:05.802Z,114.00
2023-02-22T16:59:38.740Z,119.25
2023-02-22T17:02:10.020Z,118.85
2023-02-22T17:04:37.573Z,124.22
2023-02-22T17:07:05.479Z,121.75
2023-02-22T17:09:33.292Z,112.32
2023-02-22T17:12:01.365Z,124.80
2023-02-22T17:14:36.640Z,127.72
2023-02-22T17:17:04.195Z,122.45
2023-02-22T17:19:32.012Z,119.85
2023-02-22T17:35:58.729Z,117.38
2023-02-22T17:48:02.480Z,118.97
2023-02-22T17:51:49.107Z,115.50
2023-02-22T18:02:05.532Z,119.30
2023-02-22T18:04:41.533Z,124.47
2023-02-22T18:43:19.291Z,122.97
2023-02-22T19:21:19.183Z,130.88
2023-02-22T20:10:59.319Z,123.53
2023-02-22T20:13:26.836Z,146.15
2023-02-22T20:15:55.551Z,134.65
2023-02-22T20:18:23.227Z,133.80
2023-02-22T20:20:51.506Z,144.70
2023-02-22T20:23:19.113Z,127.63
2023-02-22T20:25:56.971Z,133.85
2023-02-22T20:28:24.589Z,130.52
2023-02-22T20:30:52.422Z,132.60
2023-02-22T20:33:22.308Z,131.80
2023-02-22T20:35:49.968Z,136.35
2023-02-22T20:38:19.353Z,129.35
2023-02-22T20:40:47.414Z,142.02
2023-02-22T20:43:15.022Z,125.28
2023-02-22T20:45:42.630Z,127.60
2023-02-22T20:48:11.617Z,124.55
2023-02-22T20:50:39.124Z,132.98
2023-02-22T20:53:06.646Z,141.20
2023-02-22T20:55:34.203Z,136.90
2023-02-22T20:58:02.100Z,124.45
2023-02-22T21:00:29.661Z,126.40
2023-02-22T21:02:57.208Z,133.65
2023-02-22T21:05:24.710Z,135.35
2023-02-22T21:07:52.188Z,130.90
2023-02-22T21:10:21.206Z,139.88
2023-02-22T21:12:49.448Z,131.35
2023-02-22T21:15:20.634Z,130.98
2023-02-22T21:17:48.190Z,142.73
2023-02-22T21:20:16.506Z,140.52
2023-02-22T21:22:45.251Z,133.63
2023-02-22T21:25:14.136Z,127.85
2023-02-22T21:27:42.146Z,132.63
2023-02-22T21:30:10.485Z,128.27
2023-02-22T21:32:38.134Z,133.55
2023-02-22T21:35:06.139Z,133.77
2023-02-22T21:37:36.439Z,133.90
2023-02-22T21:40:10.915Z,141.52
2023-02-22T21:42:38.545Z,134.18
2023-02-22T21:45:08.497Z,143.10
2023-02-22T21:47:36.130Z,150.88
2023-02-22T21:50:03.724Z,141.38
2023-02-22T21:52:31.352Z,139.45
2023-02-22T21:54:58.879Z,141.32
2023-02-22T21:57:26.372Z,150.45
2023-02-22T21:59:53.858Z,140.82
2023-02-22T22:02:22.192Z,136.85
2023-02-22T22:04:50.708Z,143.32
2023-02-22T22:07:19.011Z,152.70
2023-02-22T22:09:48.251Z,155.95
2023-02-22T22:12:37.445Z,145.38
2023-02-22T22:15:09.174Z,149.88
2023-02-22T22:17:36.842Z,161.30
2023-02-22T22:20:05.464Z,138.85
2023-02-22T22:22:32.960Z,150.93
2023-02-22T22:25:03.499Z,145.65
2023-02-22T22:27:30.892Z,142.35
2023-02-22T22:30:01.776Z,147.32
2023-02-22T22:32:32.394Z,149.63
2023-02-22T22:35:01.898Z,141.65
2023-02-22T22:37:30.148Z,147.35
2023-02-22T22:39:58.576Z,148.98
2023-02-22T22:42:26.262Z,144.18
2023-02-22T22:44:53.706Z,157.60
2023-02-22T22:47:21.526Z,148.13
2023-02-22T22:49:50.276Z,142.07
2023-02-22T22:52:19.149Z,153.70
2023-02-22T22:54:46.804Z,151.38
2023-02-22T22:57:14.848Z,145.57
2023-02-22T22:59:42.251Z,155.52
2023-02-22T23:02:11.564Z,142.82
2023-02-22T23:04:39.132Z,149.52
2023-02-22T23:07:06.720Z,153.55
2023-02-22T23:09:37.617Z,145.88
2023-02-22T23:12:09.228Z,147.00
2023-02-22T23:14:44.152Z,142.20
2023-02-22T23:17:31.632Z,154.40
2023-02-22T23:19:59.188Z,142.77
2023-02-22T23:22:27.988Z,152.18
2023-02-22T23:24:59.967Z,139.65
2023-02-22T23:27:28.528Z,140.55
2023-02-22T23:29:55.988Z,145.20
2023-02-22T23:32:23.475Z,152.32
2023-02-22T23:34:51.209Z,155.30
2023-02-22T23:37:20.833Z,151.32
2023-02-22T23:39:50.961Z,149.32
2023-02-22T23:42:18.666Z,148.55
2023-02-22T23:44:47.779Z,134.23
2023-02-22T23:47:16.286Z,137.75
2023-02-22T23:49:49.328Z,157.80
2023-02-22T23:52:24.140Z,146.38
2023-02-22T23:54:53.988Z,140.02
2023-02-22T23:57:21.751Z,147.77
2023-02-22T23:59:51.519Z,153.43
